createdAt,value
2023-03-13T00:02:08.216Z,99997.06
2023-03-13T00:07:11.026Z,99981.19
2023-03-13T00:12:12.572Z,99964.88
2023-03-13T00:17:15.005Z,99964.84
2023-03-13T00:22:16.953Z,99943.97
2023-03-13T00:27:18.780Z,99932.00
2023-03-13T00:32:21.128Z,99907.25
2023-03-13T00:37:23.608Z,99900.94
2023-03-13T00:42:26.924Z,99891.81
2023-03-13T00:47:30.766Z,99871.63
2023-03-13T00:52:32.979Z,99869.53
2023-03-13T00:57:35.900Z,99862.31
2023-03-13T01:02:50.314Z,99842.19
2023-03-13T01:07:52.136Z,99845.81
2023-03-13T01:12:53.709Z,99837.78
2023-03-13T01:17:55.332Z,99837.22
2023-03-13T01:22:57.542Z,99824.72
2023-03-13T01:28:00.033Z,99814.31
2023-03-13T01:33:03.384Z,99816.31
2023-03-13T01:38:05.066Z,99804.13
2023-03-13T01:43:26.847Z,99789.75
2023-03-13T01:48:36.773Z,99778.88
2023-03-13T01:53:42.649Z,99763.69
2023-03-13T01:58:45.809Z,99759.34
2023-03-13T02:03:50.180Z,99754.69
2023-03-13T02:08:57.714Z,99728.16
2023-03-13T02:14:03.376Z,99718.47
2023-03-13T02:19:17.346Z,99704.44
2023-03-13T02:24:34.579Z,99689.25
2023-03-13T02:29:36.504Z,99683.75
2023-03-13T02:34:41.274Z,99671.47
2023-03-13T02:39:48.212Z,99659.16
2023-03-13T02:44:51.056Z,99653.56
2023-03-13T02:49:53.223Z,99655.16
2023-03-13T02:55:03.375Z,99648.91
2023-03-13T03:00:07.141Z,99653.28
2023-03-13T03:05:12.499Z,99646.78
2023-03-13T03:10:15.866Z,99642.22
2023-03-13T03:15:18.004Z,99626.53
2023-03-13T03:20:22.592Z,99618.16
2023-03-13T03:25:24.323Z,99605.34
2023-03-13T03:30:26.262Z,99616.34
2023-03-13T03:35:28.129Z,99616.34
2023-03-13T03:40:30.965Z,99626.53
2023-03-13T03:45:32.998Z,99627.66
2023-03-13T03:50:34.869Z,99618.75
2023-03-13T03:55:37.676Z,99601.75
2023-03-13T04:00:39.580Z,99588.91
2023-03-13T04:05:41.636Z,99597.66
2023-03-13T04:10:44.565Z,99566.50
2023-03-13T04:15:46.905Z,99579.22
2023-03-13T04:20:48.942Z,99590.81
2023-03-13T04:25:51.815Z,99564.28
2023-03-13T04:30:54.747Z,99556.69
2023-03-13T04:36:07.449Z,99557.41
2023-03-13T04:41:28.344Z,99563.34
2023-03-13T04:46:49.090Z,99558.78
2023-03-13T04:52:09.859Z,99563.81
2023-03-13T04:57:32.059Z,99563.94
2023-03-13T05:03:02.674Z,99538.78
2023-03-13T05:08:24.048Z,99525.72
2023-03-13T05:13:46.189Z,99534.97
2023-03-13T05:18:58.051Z,99522.34
2023-03-13T05:24:10.112Z,99531.66
2023-03-13T05:29:19.040Z,99530.84
2023-03-13T05:34:44.020Z,99516.16
2023-03-13T05:40:06.854Z,99509.25
2023-03-13T05:45:20.887Z,99514.53
2023-03-13T05:50:26.318Z,99518.41
2023-03-13T05:55:46.927Z,99505.41
2023-03-13T06:01:15.606Z,99500.38
2023-03-13T06:06:36.793Z,99488.00
2023-03-13T06:11:39.898Z,99504.47
2023-03-13T06:16:42.227Z,99496.69
2023-03-13T06:21:50.283Z,99507.47
2023-03-13T06:26:51.841Z,99515.22
2023-03-13T06:31:54.149Z,99532.53
2023-03-13T06:36:56.613Z,99524.69
2023-03-13T06:41:59.302Z,99534.88
2023-03-13T06:47:01.716Z,99535.09
2023-03-13T06:52:03.397Z,99544.94
2023-03-13T06:57:05.035Z,99551.66
2023-03-13T07:02:07.618Z,99548.47
2023-03-13T07:07:14.944Z,99538.22
2023-03-13T07:12:21.035Z,99543.91
2023-03-13T07:17:22.891Z,99545.19
2023-03-13T07:22:24.618Z,99551.97
2023-03-13T07:27:26.256Z,99545.19
2023-03-13T07:32:32.293Z,99544.94
2023-03-13T07:37:33.932Z,99555.50
2023-03-13T07:42:35.910Z,99547.56
2023-03-13T07:47:37.458Z,99539.69
2023-03-13T07:52:39.057Z,99530.03
2023-03-13T07:57:40.733Z,99518.44
2023-03-13T08:02:42.440Z,99515.81
2023-03-13T08:07:45.222Z,99517.16
2023-03-13T08:12:47.771Z,99505.47
2023-03-13T08:17:49.563Z,99517.44
2023-03-13T08:22:51.229Z,99506.44
2023-03-13T08:27:53.797Z,99502.88
2023-03-13T08:32:56.663Z,99497.41
2023-03-13T08:37:59.579Z,99487.13
2023-03-13T08:43:03.113Z,99498.69
2023-03-13T08:48:04.768Z,99484.63
2023-03-13T08:53:06.750Z,99495.06
2023-03-13T08:58:09.022Z,99485.22
2023-03-13T09:03:11.312Z,99495.69
2023-03-13T09:08:14.453Z,99481.59
2023-03-13T09:13:16.477Z,99486.09
2023-03-13T09:18:18.253Z,99484.38
2023-03-13T09:23:21.762Z,99478.47
2023-03-13T09:28:25.057Z,99477.81
2023-03-13T09:33:26.679Z,99472.94
2023-03-13T09:38:28.565Z,99470.56
2023-03-13T09:43:51.893Z,99466.53
2023-03-13T09:49:25.887Z,99457.50
2023-03-13T09:54:41.154Z,99453.03
2023-03-13T09:59:49.447Z,99457.38
2023-03-13T10:05:15.942Z,99447.59
2023-03-13T10:10:44.620Z,99448.13
2023-03-13T10:16:10.411Z,99439.91
2023-03-13T10:21:18.581Z,99429.53
2023-03-13T10:26:37.137Z,99428.13
2023-03-13T10:31:39.985Z,99420.78
2023-03-13T10:36:50.354Z,99411.09
2023-03-13T10:42:10.101Z,99409.59
2023-03-13T10:47:14.964Z,99408.28
2023-03-13T10:52:33.182Z,99393.47
2023-03-13T10:57:37.034Z,99378.16
2023-03-13T11:02:39.824Z,99394.03
2023-03-13T11:07:41.743Z,99390.75
2023-03-13T11:12:52.125Z,99357.34
2023-03-13T11:18:01.779Z,99356.75
2023-03-13T11:23:37.062Z,99329.59
2023-03-13T11:28:42.083Z,99326.72
2023-03-13T11:34:02.921Z,99305.81
2023-03-13T11:39:40.696Z,99302.94
2023-03-13T11:44:55.619Z,99270.91
2023-03-13T11:50:15.346Z,99278.84
2023-03-13T11:55:54.525Z,99252.50
2023-03-13T12:01:02.374Z,99242.09
2023-03-13T12:06:15.887Z,99238.59
2023-03-13T12:11:32.601Z,99228.31
2023-03-13T12:16:46.485Z,99219.66
2023-03-13T12:21:55.109Z,99239.69
2023-03-13T12:27:18.094Z,99237.16
2023-03-13T12:32:52.024Z,99220.78
2023-03-13T12:37:55.489Z,99214.81
2023-03-13T12:43:06.170Z,99198.59
2023-03-13T12:48:16.889Z,99197.34
2023-03-13T12:59:55.075Z,99176.88
2023-03-13T13:05:00.511Z,99173.63
2023-03-13T13:10:09.281Z,99178.34
2023-03-13T13:15:15.603Z,99161.28
2023-03-13T13:20:37.629Z,99160.34
2023-03-13T13:25:40.467Z,99115.03
2023-03-13T13:30:43.448Z,99125.09
2023-03-13T13:35:47.162Z,99129.78
2023-03-13T13:41:09.349Z,99120.13
2023-03-13T13:46:43.858Z,99120.59
2023-03-13T13:52:04.296Z,99102.88
2023-03-13T13:57:19.849Z,99092.75
2023-03-13T14:02:31.912Z,99084.78
2023-03-13T14:07:39.907Z,99089.44
2023-03-13T14:12:48.123Z,99073.84
2023-03-13T14:18:00.049Z,99052.13
2023-03-13T14:23:08.583Z,99030.09
2023-03-13T14:28:29.413Z,99025.31
2023-03-13T14:33:34.962Z,99019.78
2023-03-13T14:38:36.928Z,99016.66
2023-03-13T14:43:42.792Z,99003.88
2023-03-13T14:48:44.673Z,99000.66
2023-03-13T14:54:03.464Z,99009.78
2023-03-13T14:59:19.305Z,98987.72
2023-03-13T15:05:00.308Z,98955.72
2023-03-13T15:10:19.043Z,98950.06
2023-03-13T15:15:20.895Z,98930.63
2023-03-13T15:20:22.569Z,98914.28
2023-03-13T15:25:24.469Z,98904.31
2023-03-13T15:30:27.065Z,98913.88
2023-03-13T15:35:31.739Z,98913.94
2023-03-13T15:40:34.394Z,98910.22
2023-03-13T15:45:38.672Z,98899.38
2023-03-13T15:50:40.943Z,98884.81
2023-03-13T15:55:43.470Z,98882.16
2023-03-13T16:00:46.353Z,98869.38
2023-03-13T16:05:48.938Z,98867.50
2023-03-13T16:10:51.561Z,98863.44
2023-03-13T16:15:53.444Z,98848.78
2023-03-13T16:20:55.174Z,98835.28
2023-03-13T16:25:57.771Z,98813.28
2023-03-13T16:31:00.352Z,98796.38
2023-03-13T16:36:02.137Z,98780.78
2023-03-13T16:41:03.984Z,98791.34
2023-03-13T16:46:12.579Z,98789.19
2023-03-13T16:51:17.690Z,98799.94
2023-03-13T16:56:22.459Z,98807.03
2023-03-13T17:01:24.885Z,98819.75
2023-03-13T17:06:36.850Z,98829.06
2023-03-13T17:11:39.125Z,98835.69
2023-03-13T17:16:45.921Z,98806.91
2023-03-13T17:21:48.795Z,98792.84
2023-03-13T17:26:51.457Z,98790.81
2023-03-13T17:31:54.441Z,98771.53
2023-03-13T17:36:57.151Z,98808.03
2023-03-13T17:41:59.072Z,98792.94
2023-03-13T17:47:01.939Z,98777.91
2023-03-13T17:52:04.444Z,98748.88
2023-03-13T17:57:18.829Z,98771.63
2023-03-13T18:02:20.380Z,98771.63
2023-03-13T18:07:34.613Z,98793.81
2023-03-13T18:12:36.828Z,98775.88
2023-03-13T18:17:39.998Z,98787.19
2023-03-13T18:22:45.192Z,98794.47
2023-03-13T18:27:48.432Z,98810.44
2023-03-13T18:32:50.588Z,98815.28
2023-03-13T18:37:52.561Z,98793.50
2023-03-13T18:42:55.532Z,98793.97
2023-03-13T18:47:57.926Z,98799.28
2023-03-13T18:53:02.611Z,98799.59
2023-03-13T18:58:05.664Z,98785.63
2023-03-13T19:03:07.286Z,98785.59
2023-03-13T19:08:11.303Z,98781.91
2023-03-13T19:13:14.231Z,98780.56
2023-03-13T19:18:15.879Z,98773.44
2023-03-13T19:23:18.175Z,98736.72
2023-03-13T19:28:20.957Z,98725.66
2023-03-13T19:33:23.441Z,98694.47
2023-03-13T19:38:25.538Z,98704.47
2023-03-13T19:43:27.319Z,98695.28
2023-03-13T19:48:29.917Z,98698.72
2023-03-13T19:53:32.255Z,98690.38
2023-03-13T19:58:34.595Z,98702.66
2023-03-13T20:03:36.480Z,98704.69
2023-03-13T20:08:38.230Z,98721.47
2023-03-13T20:13:40.581Z,98737.41
2023-03-13T20:18:43.368Z,98732.09
2023-03-13T20:23:47.858Z,98722.75
2023-03-13T20:28:51.705Z,98726.78
2023-03-13T20:33:54.488Z,98713.88
2023-03-13T20:38:56.880Z,98696.66
2023-03-13T20:43:59.104Z,98703.38
2023-03-13T20:49:01.006Z,98705.16
2023-03-13T20:54:02.980Z,98705.16
2023-03-13T20:59:04.784Z,98710.66
2023-03-13T21:04:06.452Z,98706.31
2023-03-13T21:09:08.460Z,98707.16
2023-03-13T21:14:10.884Z,98701.78
2023-03-13T21:19:13.102Z,98680.09
2023-03-13T21:24:16.868Z,98649.81
2023-03-13T21:29:19.812Z,98647.28
2023-03-13T21:34:22.829Z,98682.72
2023-03-13T21:39:25.841Z,98732.81
2023-03-13T21:44:28.914Z,98732.66
2023-03-13T21:49:31.019Z,98743.13
2023-03-13T21:54:34.035Z,98716.63
2023-03-13T21:59:36.422Z,98731.31
2023-03-13T22:04:38.167Z,98743.47
2023-03-13T22:09:39.678Z,98756.50
2023-03-13T22:14:41.271Z,98753.13
2023-03-13T22:19:43.200Z,98745.25
2023-03-13T22:24:44.691Z,98739.56
2023-03-13T22:29:46.335Z,98717.41
2023-03-13T22:34:48.531Z,98713.84
2023-03-13T22:39:50.489Z,98710.34
2023-03-13T22:44:55.094Z,98705.81
2023-03-13T22:49:57.540Z,98712.72
2023-03-13T22:54:59.487Z,98675.09
2023-03-13T23:00:02.291Z,98688.09
2023-03-13T23:05:04.950Z,98701.16
2023-03-13T23:10:09.452Z,98694.56
2023-03-13T23:15:12.325Z,98698.69
2023-03-13T23:20:14.626Z,98722.22
2023-03-13T23:25:16.687Z,98659.75
2023-03-13T23:30:18.797Z,98649.22
2023-03-13T23:35:20.978Z,98653.69
2023-03-13T23:40:25.153Z,98657.94
2023-03-13T23:45:27.845Z,98672.44
2023-03-13T23:50:29.856Z,98642.09
2023-03-13T23:55:32.212Z,98626.34
